createdAt,value
2023-04-18T00:00:13.239Z,19.23
2023-04-18T00:01:15.325Z,19.58
2023-04-18T00:02:19.816Z,20.37
2023-04-18T00:03:21.933Z,24.80
2023-04-18T00:04:24.131Z,19.98
2023-04-18T00:05:26.232Z,22.17
2023-04-18T00:06:29.976Z,25.17
2023-04-18T00:07:31.712Z,22.00
2023-04-18T00:08:33.998Z,23.85
2023-04-18T00:09:35.794Z,28.92
2023-04-18T00:10:37.557Z,23.10
2023-04-18T00:11:39.376Z,21.77
2023-04-18T00:12:41.163Z,25.10
2023-04-18T00:13:43.080Z,22.43
2023-04-18T00:14:44.838Z,24.73
2023-04-18T00:15:46.610Z,24.95
2023-04-18T00:16:48.418Z,22.13
2023-04-18T00:17:50.312Z,24.33
2023-04-18T00:18:53.134Z,32.97
2023-04-18T00:19:56.341Z,23.83
2023-04-18T00:20:58.072Z,21.42
2023-04-18T00:22:00.097Z,21.30
2023-04-18T00:23:01.903Z,21.37
2023-04-18T00:24:03.739Z,25.03
2023-04-18T00:25:05.856Z,25.70
2023-04-18T00:26:07.825Z,22.67
2023-04-18T00:27:09.564Z,27.48
2023-04-18T00:28:11.409Z,26.80
2023-04-18T00:29:13.166Z,22.38
2023-04-18T00:30:15.446Z,23.60
2023-04-18T00:31:17.284Z,30.90
2023-04-18T00:32:19.796Z,26.10
2023-04-18T00:33:21.606Z,32.13
2023-04-18T00:34:23.611Z,23.40
2023-04-18T00:35:25.537Z,27.10
2023-04-18T00:36:27.856Z,26.50
2023-04-18T00:37:29.927Z,25.42
2023-04-18T00:38:31.727Z,22.60
2023-04-18T00:39:36.109Z,21.27
2023-04-18T00:40:38.734Z,31.50
2023-04-18T00:41:40.577Z,29.27
2023-04-18T00:42:42.354Z,24.10
2023-04-18T00:43:44.380Z,24.07
2023-04-18T00:44:46.172Z,26.27
2023-04-18T00:45:47.909Z,23.23
2023-04-18T00:46:49.897Z,23.13
2023-04-18T00:47:51.741Z,25.90
2023-04-18T00:48:53.582Z,24.85
2023-04-18T00:49:55.534Z,23.65
2023-04-18T00:50:57.948Z,23.00
2023-04-18T00:51:59.891Z,19.27
2023-04-18T00:53:01.856Z,21.52
2023-04-18T00:54:06.689Z,21.63
2023-04-18T00:55:09.393Z,24.00
2023-04-18T00:56:11.620Z,25.33
2023-04-18T00:57:13.775Z,26.00
2023-04-18T00:58:15.932Z,26.85
2023-04-18T00:59:17.858Z,21.27
2023-04-18T01:00:19.696Z,26.98
2023-04-18T01:01:22.099Z,23.65
2023-04-18T01:02:26.152Z,23.73
2023-04-18T01:03:28.335Z,28.60
2023-04-18T01:04:32.623Z,25.97
2023-04-18T01:05:36.213Z,25.27
2023-04-18T01:06:38.128Z,25.83
2023-04-18T01:07:42.531Z,24.55
2023-04-18T01:08:45.077Z,25.70
2023-04-18T01:09:47.526Z,28.67
2023-04-18T01:10:50.229Z,28.67
2023-04-18T01:11:51.981Z,28.92
2023-04-18T01:13:11.190Z,32.25
2023-04-18T01:14:13.193Z,27.63
2023-04-18T01:15:15.805Z,26.23
2023-04-18T01:16:17.643Z,28.17
2023-04-18T01:17:19.470Z,28.30
2023-04-18T01:18:22.512Z,24.83
2023-04-18T01:19:24.527Z,26.27
2023-04-18T01:20:26.359Z,29.83
2023-04-18T01:21:33.782Z,26.08
2023-04-18T01:22:35.690Z,27.52
2023-04-18T01:23:37.482Z,27.20
2023-04-18T01:24:39.447Z,30.38
2023-04-18T01:25:41.859Z,27.60
2023-04-18T01:26:45.880Z,30.77
2023-04-18T01:27:47.720Z,27.55
2023-04-18T01:28:49.460Z,27.40
2023-04-18T01:29:51.199Z,27.80
2023-04-18T01:30:54.481Z,26.08
2023-04-18T01:31:56.349Z,31.98
2023-04-18T01:32:58.164Z,27.70
2023-04-18T01:33:59.903Z,25.95
2023-04-18T01:35:01.819Z,28.25
2023-04-18T01:36:03.972Z,27.33
2023-04-18T01:37:05.828Z,28.47
2023-04-18T01:38:07.614Z,32.28
2023-04-18T01:39:09.525Z,29.83
2023-04-18T01:40:11.759Z,30.00
2023-04-18T01:41:13.585Z,31.77
2023-04-18T01:42:15.319Z,28.52
2023-04-18T01:43:17.070Z,29.80
2023-04-18T01:44:18.812Z,31.95
2023-04-18T01:45:20.876Z,31.52
2023-04-18T01:46:22.681Z,33.27
2023-04-18T01:47:24.522Z,32.10
2023-04-18T01:48:26.323Z,28.65
2023-04-18T01:49:28.073Z,32.28
2023-04-18T01:50:29.816Z,28.73
2023-04-18T01:51:31.570Z,31.95
2023-04-18T01:52:33.558Z,30.20
2023-04-18T01:53:35.336Z,29.58
2023-04-18T01:54:37.049Z,28.83
2023-04-18T01:55:38.926Z,29.50
2023-04-18T01:56:40.671Z,32.43
2023-04-18T01:57:42.400Z,31.83
2023-04-18T01:58:44.213Z,27.48
2023-04-18T01:59:46.011Z,30.88
2023-04-18T02:00:47.746Z,28.80
2023-04-18T02:01:49.570Z,32.08
2023-04-18T02:02:51.540Z,29.15
2023-04-18T02:03:53.469Z,27.77
2023-04-18T02:04:55.331Z,29.50
2023-04-18T02:05:57.104Z,28.38
2023-04-18T02:06:58.850Z,28.87
2023-04-18T02:08:00.743Z,32.03
2023-04-18T02:09:02.526Z,26.38
2023-04-18T02:10:05.747Z,29.75
2023-04-18T02:11:07.710Z,25.10
2023-04-18T02:12:10.089Z,28.92
2023-04-18T02:13:11.886Z,31.80
2023-04-18T02:14:14.246Z,31.70
2023-04-18T02:15:16.224Z,28.85
2023-04-18T02:16:18.046Z,28.27
2023-04-18T02:17:21.601Z,31.00
2023-04-18T02:18:24.927Z,30.00
2023-04-18T02:19:28.258Z,31.92
2023-04-18T02:20:33.620Z,28.05
2023-04-18T02:21:35.499Z,28.42
2023-04-18T02:22:38.365Z,27.90
2023-04-18T02:23:40.153Z,30.33
2023-04-18T02:24:41.917Z,29.17
2023-04-18T02:25:43.740Z,27.95
2023-04-18T02:26:45.848Z,25.50
2023-04-18T02:27:47.582Z,30.33
2023-04-18T02:28:49.425Z,30.80
2023-04-18T02:29:51.140Z,25.88
2023-04-18T02:30:52.900Z,28.77
2023-04-18T02:31:54.677Z,33.95
2023-04-18T02:32:59.736Z,25.20
2023-04-18T02:34:01.746Z,26.45
2023-04-18T02:35:03.693Z,25.90
2023-04-18T02:36:06.005Z,26.27
2023-04-18T02:37:07.768Z,29.30
2023-04-18T02:38:09.502Z,29.50
2023-04-18T02:39:11.407Z,24.47
2023-04-18T02:40:13.363Z,29.38
2023-04-18T02:41:18.064Z,25.83
2023-04-18T02:42:19.862Z,28.02
2023-04-18T02:43:21.621Z,27.30
2023-04-18T02:44:23.375Z,22.58
2023-04-18T02:45:25.231Z,26.90
2023-04-18T02:46:27.062Z,29.30
2023-04-18T02:47:29.487Z,23.42
2023-04-18T02:48:32.229Z,26.50
2023-04-18T02:49:34.037Z,23.33
2023-04-18T02:50:35.924Z,26.17
2023-04-18T02:51:37.793Z,22.10
2023-04-18T02:52:39.526Z,23.38
2023-04-18T02:53:41.447Z,27.45
2023-04-18T02:54:43.242Z,25.83
2023-04-18T02:55:45.034Z,22.38
2023-04-18T02:56:46.752Z,25.13
2023-04-18T02:57:48.507Z,27.40
2023-04-18T02:58:50.332Z,24.77
2023-04-18T02:59:52.064Z,28.10
2023-04-18T03:00:55.980Z,28.88
2023-04-18T03:01:57.710Z,26.08
2023-04-18T03:02:59.476Z,26.30
2023-04-18T03:04:01.230Z,25.33
2023-04-18T03:05:03.395Z,23.90
2023-04-18T03:06:05.467Z,24.75
2023-04-18T03:07:07.244Z,23.67
2023-04-18T03:08:09.096Z,21.17
2023-04-18T03:09:11.012Z,22.37
2023-04-18T03:10:12.781Z,22.67
2023-04-18T03:11:14.492Z,22.33
2023-04-18T03:12:16.383Z,26.67
2023-04-18T03:13:18.112Z,23.13
2023-04-18T03:14:19.841Z,26.17
2023-04-18T03:15:21.680Z,23.80
2023-04-18T03:16:23.527Z,24.80
2023-04-18T03:17:25.614Z,23.98
2023-04-18T03:18:27.402Z,26.52
2023-04-18T03:19:29.176Z,22.67
2023-04-18T03:20:30.899Z,23.75
2023-04-18T03:21:32.640Z,26.77
2023-04-18T03:22:34.373Z,26.33
2023-04-18T03:23:36.090Z,29.25
2023-04-18T03:24:37.822Z,24.63
2023-04-18T03:25:39.570Z,24.35
2023-04-18T03:26:41.377Z,33.67
2023-04-18T03:27:43.591Z,27.45
2023-04-18T03:28:45.446Z,25.08
2023-04-18T03:29:47.167Z,23.17
2023-04-18T03:30:48.912Z,29.33
2023-04-18T03:31:50.788Z,25.73
2023-04-18T03:32:53.736Z,31.52
2023-04-18T03:33:55.508Z,26.58
2023-04-18T03:34:57.240Z,26.17
2023-04-18T03:35:59.315Z,32.75
2023-04-18T03:37:01.468Z,31.85
2023-04-18T03:38:03.265Z,28.25
2023-04-18T03:39:05.197Z,31.00
2023-04-18T03:40:07.411Z,35.23
2023-04-18T03:41:09.286Z,30.10
2023-04-18T03:42:11.097Z,33.58
2023-04-18T03:43:12.913Z,31.92
2023-04-18T03:44:14.853Z,31.08
2023-04-18T03:45:16.837Z,30.95
2023-04-18T03:46:18.737Z,30.73
2023-04-18T03:47:20.522Z,30.42
2023-04-18T03:48:22.466Z,27.02
2023-04-18T03:49:24.269Z,32.60
2023-04-18T03:50:26.125Z,35.40
2023-04-18T03:51:32.675Z,33.70
2023-04-18T03:52:34.488Z,34.75
2023-04-18T03:53:36.277Z,33.90
2023-04-18T03:54:38.010Z,32.88
2023-04-18T03:55:39.755Z,33.50
2023-04-18T03:56:42.071Z,31.90
2023-04-18T03:57:43.809Z,29.20
2023-04-18T03:58:45.670Z,35.70
2023-04-18T03:59:48.015Z,31.05
2023-04-18T04:00:51.175Z,34.87
2023-04-18T04:01:52.956Z,29.02
2023-04-18T04:02:54.869Z,31.10
2023-04-18T04:03:56.800Z,34.53
2023-04-18T04:04:58.740Z,37.30
2023-04-18T04:06:00.923Z,33.22
2023-04-18T04:07:02.892Z,36.00
2023-04-18T04:08:04.769Z,30.52
2023-04-18T04:09:06.647Z,37.38
2023-04-18T04:10:08.702Z,33.13
2023-04-18T04:11:10.513Z,38.67
2023-04-18T04:12:12.272Z,34.20
2023-04-18T04:13:13.981Z,35.22
2023-04-18T04:14:16.153Z,32.97
2023-04-18T04:15:18.148Z,40.30
2023-04-18T04:16:19.900Z,37.22
2023-04-18T04:17:21.872Z,33.15
2023-04-18T04:18:29.879Z,38.25
2023-04-18T04:19:31.640Z,34.33
2023-04-18T04:20:33.474Z,26.92
2023-04-18T04:21:35.877Z,35.43
2023-04-18T04:22:37.777Z,33.67
2023-04-18T04:23:42.169Z,34.35
2023-04-18T04:24:44.284Z,35.58
2023-04-18T04:25:46.375Z,33.25
2023-04-18T04:26:48.717Z,33.97
2023-04-18T04:27:53.678Z,34.97
2023-04-18T04:28:55.460Z,33.13
2023-04-18T04:29:57.318Z,33.67
2023-04-18T04:30:59.369Z,27.20
2023-04-18T04:32:01.204Z,38.33
2023-04-18T04:33:03.326Z,34.53
2023-04-18T04:34:05.141Z,35.28
2023-04-18T04:35:08.426Z,32.10
2023-04-18T04:36:10.447Z,36.72
2023-04-18T04:37:18.595Z,32.80
2023-04-18T04:38:22.930Z,34.05
2023-04-18T04:39:24.770Z,35.67
2023-04-18T04:40:26.555Z,35.00
2023-04-18T04:41:29.383Z,33.33
2023-04-18T04:42:31.172Z,34.27
2023-04-18T04:43:33.627Z,35.70
2023-04-18T04:44:35.619Z,32.00
2023-04-18T04:45:38.950Z,32.38
2023-04-18T04:46:41.440Z,34.08
2023-04-18T04:47:43.312Z,33.42
2023-04-18T04:48:45.236Z,37.00
2023-04-18T04:49:47.005Z,33.05
2023-04-18T04:50:57.100Z,34.47
2023-04-18T04:52:00.138Z,36.13
2023-04-18T04:53:03.864Z,35.20
2023-04-18T04:54:06.004Z,32.38
2023-04-18T04:55:07.933Z,32.72
2023-04-18T04:56:09.796Z,33.03
2023-04-18T04:57:11.868Z,36.22
2023-04-18T04:58:13.654Z,39.08
2023-04-18T04:59:15.517Z,35.60
2023-04-18T05:00:20.990Z,32.72
2023-04-18T05:01:22.954Z,37.85
2023-04-18T05:02:25.149Z,36.08
2023-04-18T05:03:27.072Z,37.33
2023-04-18T05:04:28.978Z,35.72
2023-04-18T05:05:30.999Z,30.40
2023-04-18T05:06:32.903Z,33.10
2023-04-18T05:07:34.681Z,33.70
2023-04-18T05:08:36.421Z,32.95
2023-04-18T05:09:38.174Z,34.28
2023-04-18T05:10:39.919Z,34.22
2023-04-18T05:11:41.650Z,37.08
2023-04-18T05:12:43.431Z,32.05
2023-04-18T05:13:45.277Z,31.23
2023-04-18T05:14:47.008Z,31.30
2023-04-18T05:15:49.001Z,36.78
2023-04-18T05:16:50.881Z,35.80
2023-04-18T05:17:52.740Z,35.28
2023-04-18T05:18:54.507Z,31.98
2023-04-18T05:19:56.222Z,31.40
2023-04-18T05:20:57.952Z,33.97
2023-04-18T05:21:59.703Z,30.60
2023-04-18T05:23:01.760Z,27.60
2023-04-18T05:24:03.629Z,29.13
2023-04-18T05:25:05.925Z,26.27
2023-04-18T05:26:07.734Z,27.50
2023-04-18T05:27:09.880Z,27.42
2023-04-18T05:28:11.683Z,28.15
2023-04-18T05:29:13.494Z,26.33
2023-04-18T05:30:15.352Z,29.98
2023-04-18T05:31:17.255Z,25.42
2023-04-18T05:32:19.303Z,28.42
2023-04-18T05:33:21.644Z,29.70
2023-04-18T05:34:23.424Z,29.13
2023-04-18T05:35:25.161Z,23.27
2023-04-18T05:36:26.984Z,19.88
2023-04-18T05:37:28.997Z,25.45
2023-04-18T05:38:31.046Z,25.63
2023-04-18T05:39:32.845Z,20.77
2023-04-18T05:40:35.018Z,24.20
2023-04-18T05:41:36.790Z,18.58
2023-04-18T05:42:38.660Z,24.38
2023-04-18T05:43:41.775Z,25.60
2023-04-18T05:44:43.599Z,25.67
2023-04-18T05:45:45.973Z,22.90
2023-04-18T05:46:51.306Z,23.23
2023-04-18T05:47:53.947Z,23.67
2023-04-18T05:48:55.819Z,23.92
2023-04-18T05:49:57.646Z,23.42
2023-04-18T05:50:59.454Z,23.33
2023-04-18T05:52:01.213Z,22.20
2023-04-18T05:53:02.933Z,20.05
2023-04-18T05:54:04.711Z,21.08
2023-04-18T05:55:07.384Z,20.73
2023-04-18T05:56:09.253Z,20.23
2023-04-18T05:57:11.015Z,25.90
2023-04-18T05:58:12.785Z,21.45
2023-04-18T05:59:14.519Z,21.95
2023-04-18T06:00:17.173Z,29.08
2023-04-18T06:01:18.908Z,25.83
2023-04-18T06:02:21.093Z,21.25
2023-04-18T06:03:23.187Z,19.90
2023-04-18T06:04:25.392Z,23.95
2023-04-18T06:05:27.914Z,21.53
2023-04-18T06:06:29.963Z,24.65
2023-04-18T06:07:32.355Z,23.80
2023-04-18T06:08:34.107Z,23.95
2023-04-18T06:09:36.011Z,23.52
2023-04-18T06:10:39.163Z,28.42
2023-04-18T06:11:41.068Z,26.67
2023-04-18T06:12:43.088Z,27.83
2023-04-18T06:13:44.851Z,28.67
2023-04-18T06:14:46.649Z,31.75
2023-04-18T06:15:48.466Z,28.77
2023-04-18T06:16:50.439Z,28.95
2023-04-18T06:17:52.307Z,25.75
2023-04-18T06:18:55.029Z,28.88
2023-04-18T06:19:56.932Z,28.67
2023-04-18T06:20:58.735Z,31.02
2023-04-18T06:22:01.338Z,32.35
2023-04-18T06:23:03.140Z,31.67
2023-04-18T06:24:05.989Z,28.13
2023-04-18T06:25:11.195Z,30.42
2023-04-18T06:26:13.397Z,28.87
2023-04-18T06:27:27.781Z,36.60
2023-04-18T06:28:32.909Z,30.65
2023-04-18T06:29:36.053Z,28.10
2023-04-18T06:30:38.545Z,30.55
2023-04-18T06:31:42.105Z,37.35
2023-04-18T06:32:44.186Z,28.45
2023-04-18T06:33:45.940Z,33.55
2023-04-18T06:34:47.679Z,31.88
2023-04-18T06:35:49.457Z,37.35
2023-04-18T06:36:51.611Z,33.70
2023-04-18T06:37:53.371Z,33.47
2023-04-18T06:38:55.138Z,36.85
2023-04-18T06:39:56.933Z,31.52
2023-04-18T06:40:58.675Z,35.08
2023-04-18T06:42:02.346Z,29.48
2023-04-18T06:43:04.153Z,28.98
2023-04-18T06:44:05.909Z,32.88
2023-04-18T06:45:08.085Z,30.20
2023-04-18T06:46:09.913Z,38.30
2023-04-18T06:47:12.009Z,29.43
2023-04-18T06:48:13.934Z,33.08
2023-04-18T06:49:15.717Z,31.50
2023-04-18T06:50:17.743Z,32.83
2023-04-18T06:51:19.567Z,30.45
2023-04-18T06:52:21.375Z,31.42
2023-04-18T06:53:23.571Z,30.80
2023-04-18T06:54:25.483Z,33.33
2023-04-18T06:55:27.232Z,35.17
2023-04-18T06:56:29.667Z,31.65
2023-04-18T06:57:31.411Z,30.27
2023-04-18T06:58:33.260Z,32.95
2023-04-18T06:59:35.817Z,30.40
2023-04-18T07:00:37.578Z,30.02
2023-04-18T07:01:42.561Z,32.05
2023-04-18T07:02:44.445Z,37.47
2023-04-18T07:03:46.441Z,31.33
2023-04-18T07:04:48.371Z,34.58
2023-04-18T07:05:50.611Z,33.10
2023-04-18T07:06:52.773Z,29.70
2023-04-18T07:07:54.488Z,34.13
2023-04-18T07:09:00.014Z,30.63
2023-04-18T07:10:01.897Z,30.73
2023-04-18T07:11:03.777Z,33.03
2023-04-18T07:12:05.838Z,35.08
2023-04-18T07:13:07.630Z,33.60
2023-04-18T07:14:11.857Z,34.50
2023-04-18T07:15:13.964Z,34.53
2023-04-18T07:16:15.873Z,32.58
2023-04-18T07:17:18.139Z,36.08
2023-04-18T07:18:30.153Z,36.27
2023-04-18T07:19:38.841Z,40.47
2023-04-18T07:20:40.653Z,25.63
2023-04-18T07:21:43.840Z,31.23
2023-04-18T07:22:45.969Z,31.80
2023-04-18T07:23:47.767Z,31.65
2023-04-18T07:24:49.602Z,35.60
2023-04-18T07:25:52.016Z,35.15
2023-04-18T07:26:55.173Z,36.80
2023-04-18T07:27:57.056Z,31.35
2023-04-18T07:28:58.807Z,31.83
2023-04-18T07:30:00.605Z,28.13
2023-04-18T07:31:04.523Z,31.60
2023-04-18T07:32:08.106Z,33.17
2023-04-18T07:33:10.249Z,32.13
2023-04-18T07:34:14.033Z,37.95
2023-04-18T07:35:17.171Z,31.67
2023-04-18T07:36:18.981Z,27.17
2023-04-18T07:37:21.387Z,34.20
2023-04-18T07:38:23.350Z,32.05
2023-04-18T07:39:25.120Z,29.70
2023-04-18T07:40:27.046Z,29.70
2023-04-18T07:41:28.955Z,24.75
2023-04-18T07:42:30.766Z,28.92
2023-04-18T07:43:32.548Z,29.30
2023-04-18T07:44:35.622Z,33.05
2023-04-18T07:45:38.432Z,29.67
2023-04-18T07:46:40.307Z,25.90
2023-04-18T07:47:42.168Z,31.45
2023-04-18T07:48:44.080Z,29.33
2023-04-18T07:49:46.458Z,29.00
2023-04-18T07:50:49.378Z,27.60
2023-04-18T07:51:51.168Z,30.85
2023-04-18T07:52:52.962Z,26.63
2023-04-18T07:53:54.699Z,30.83
2023-04-18T07:54:56.412Z,27.83
2023-04-18T07:55:58.120Z,31.05
2023-04-18T07:57:00.849Z,30.58
2023-04-18T07:58:02.591Z,25.73
2023-04-18T07:59:04.410Z,24.10
2023-04-18T08:00:06.984Z,34.90
2023-04-18T08:01:13.404Z,35.10
2023-04-18T08:02:15.264Z,30.70
2023-04-18T08:03:17.304Z,33.70
2023-04-18T08:04:19.196Z,34.55
2023-04-18T08:05:21.086Z,25.20
2023-04-18T08:06:23.058Z,25.98
2023-04-18T08:07:24.934Z,26.83
2023-04-18T08:08:26.750Z,28.20
2023-04-18T08:09:28.485Z,29.45
2023-04-18T08:10:30.342Z,27.80
2023-04-18T08:11:33.424Z,28.80
2023-04-18T08:12:36.558Z,28.40
2023-04-18T08:13:38.494Z,26.35
2023-04-18T08:14:40.285Z,25.20
2023-04-18T08:15:42.673Z,26.35
2023-04-18T08:16:44.536Z,27.70
2023-04-18T08:17:48.970Z,27.15
2023-04-18T08:18:50.794Z,23.60
2023-04-18T08:19:52.523Z,25.90
2023-04-18T08:20:54.332Z,30.90
2023-04-18T08:22:10.625Z,31.27
2023-04-18T08:23:13.381Z,27.15
2023-04-18T08:24:15.267Z,25.35
2023-04-18T08:25:17.856Z,29.70
2023-04-18T08:26:19.828Z,24.08
2023-04-18T08:27:21.549Z,23.58
2023-04-18T08:28:23.332Z,24.73
2023-04-18T08:29:25.360Z,28.00
2023-04-18T08:30:27.205Z,27.35
2023-04-18T08:31:29.110Z,24.37
2023-04-18T08:32:35.885Z,23.20
2023-04-18T08:33:37.666Z,24.75
2023-04-18T08:34:39.510Z,25.13
2023-04-18T08:35:41.839Z,22.88
2023-04-18T08:36:43.558Z,28.90
2023-04-18T08:37:45.368Z,24.92
2023-04-18T08:38:47.592Z,24.42
2023-04-18T08:39:49.361Z,22.75
2023-04-18T08:40:51.108Z,24.45
2023-04-18T08:41:59.543Z,20.67
2023-04-18T08:43:07.926Z,23.08
2023-04-18T08:44:09.871Z,19.95
2023-04-18T08:45:16.425Z,24.35
2023-04-18T08:46:18.983Z,23.08
2023-04-18T08:47:21.522Z,21.63
2023-04-18T08:48:23.536Z,21.33
2023-04-18T08:49:25.613Z,24.02
2023-04-18T08:50:27.753Z,26.85
2023-04-18T08:51:33.032Z,30.77
2023-04-18T08:52:36.153Z,25.43
2023-04-18T08:53:39.294Z,22.15
2023-04-18T08:54:43.054Z,22.42
2023-04-18T08:55:46.833Z,24.23
2023-04-18T08:57:04.564Z,23.50
2023-04-18T08:58:06.986Z,27.42
2023-04-18T08:59:09.529Z,22.73
2023-04-18T09:00:11.916Z,29.08
2023-04-18T09:01:13.857Z,24.88
2023-04-18T09:02:16.274Z,22.52
2023-04-18T09:03:39.454Z,27.30
2023-04-18T09:04:48.481Z,25.63
2023-04-18T09:06:11.488Z,27.27
2023-04-18T09:07:17.286Z,25.02
2023-04-18T09:08:26.194Z,25.15
2023-04-18T09:09:28.153Z,21.95
2023-04-18T09:10:34.752Z,21.08
2023-04-18T09:11:36.564Z,22.90
2023-04-18T09:12:50.051Z,25.90
2023-04-18T09:13:53.159Z,25.10
2023-04-18T09:15:00.210Z,23.20
2023-04-18T09:16:02.163Z,27.77
2023-04-18T09:17:06.347Z,25.60
2023-04-18T09:18:10.335Z,25.55
2023-04-18T09:19:17.886Z,24.58
2023-04-18T09:20:49.852Z,24.77
2023-04-18T09:22:02.103Z,26.85
2023-04-18T09:23:14.375Z,25.10
2023-04-18T09:24:22.424Z,23.73
2023-04-18T09:25:30.215Z,22.50
2023-04-18T09:26:36.491Z,25.30
2023-04-18T09:27:38.333Z,25.93
2023-04-18T09:28:41.261Z,27.88
2023-04-18T09:29:46.674Z,28.70
2023-04-18T09:30:54.375Z,24.25
2023-04-18T09:32:01.134Z,20.42
2023-04-18T09:33:04.999Z,24.02
2023-04-18T09:34:20.631Z,23.15
2023-04-18T09:35:25.594Z,23.38
2023-04-18T09:36:27.934Z,23.08
2023-04-18T09:37:29.885Z,22.70
2023-04-18T09:38:41.407Z,25.03
2023-04-18T09:39:44.611Z,23.88
2023-04-18T09:40:46.372Z,23.92
2023-04-18T09:42:01.337Z,26.08
2023-04-18T09:43:20.596Z,23.85
2023-04-18T09:44:22.330Z,24.52
2023-04-18T09:45:25.438Z,23.33
2023-04-18T09:46:28.332Z,21.38
2023-04-18T09:47:31.070Z,26.35
2023-04-18T09:48:32.873Z,25.63
2023-04-18T09:49:35.266Z,24.87
2023-04-18T09:50:39.093Z,23.25
2023-04-18T09:51:43.146Z,24.15
2023-04-18T09:52:45.980Z,24.00
2023-04-18T09:53:50.221Z,28.05
2023-04-18T09:55:04.064Z,27.85
2023-04-18T09:56:09.608Z,25.10
2023-04-18T09:57:13.660Z,27.35
2023-04-18T09:58:19.142Z,26.45
2023-04-18T09:59:32.702Z,22.63
2023-04-18T10:00:37.099Z,26.87
2023-04-18T10:01:44.932Z,25.75
2023-04-18T10:03:00.279Z,24.95
2023-04-18T10:04:04.435Z,23.15
2023-04-18T10:05:08.154Z,23.85
2023-04-18T10:06:11.656Z,25.33
2023-04-18T10:07:14.774Z,30.13
2023-04-18T10:08:16.937Z,25.52
2023-04-18T10:09:19.390Z,26.80
2023-04-18T10:10:21.316Z,27.80
2023-04-18T10:11:24.282Z,26.87
2023-04-18T10:12:26.356Z,28.73
2023-04-18T10:13:29.508Z,27.73
2023-04-18T10:14:33.637Z,25.17
2023-04-18T10:15:35.723Z,23.45
2023-04-18T10:16:38.669Z,24.70
2023-04-18T10:18:05.294Z,26.27
2023-04-18T10:19:25.312Z,24.50
2023-04-18T10:20:31.848Z,23.70
2023-04-18T10:21:34.521Z,29.57
2023-04-18T10:22:36.573Z,23.35
2023-04-18T10:23:39.522Z,26.25
2023-04-18T10:24:54.147Z,22.08
2023-04-18T10:25:56.177Z,25.88
2023-04-18T10:26:58.285Z,25.13
2023-04-18T10:28:03.872Z,21.38
2023-04-18T10:29:05.682Z,27.80
2023-04-18T10:30:09.215Z,28.08
2023-04-18T10:31:11.770Z,23.90
2023-04-18T10:32:13.558Z,25.13
2023-04-18T10:34:00.764Z,35.27
2023-04-18T10:35:07.008Z,27.25
2023-04-18T10:36:08.848Z,28.75
2023-04-18T10:37:12.942Z,30.25
2023-04-18T10:38:17.741Z,25.98
2023-04-18T10:39:23.673Z,24.42
2023-04-18T10:40:34.045Z,24.42
2023-04-18T10:41:50.579Z,28.55
2023-04-18T10:42:52.835Z,28.55
2023-04-18T10:44:09.662Z,27.10
2023-04-18T10:45:25.331Z,28.67
2023-04-18T10:46:32.339Z,26.23
2023-04-18T10:47:34.592Z,27.10
2023-04-18T10:48:39.176Z,34.38
2023-04-18T10:49:53.617Z,25.00
2023-04-18T10:51:15.850Z,29.35
2023-04-18T10:52:17.770Z,25.17
2023-04-18T10:53:19.527Z,30.55
2023-04-18T10:54:47.014Z,30.67
2023-04-18T10:55:54.431Z,33.23
2023-04-18T10:56:58.480Z,26.90
2023-04-18T10:58:00.853Z,27.95
2023-04-18T10:59:03.583Z,35.47
2023-04-18T11:00:16.973Z,33.78
2023-04-18T11:01:32.109Z,29.40
2023-04-18T11:02:34.860Z,30.25
2023-04-18T11:03:37.584Z,29.75
2023-04-18T11:04:39.634Z,30.05
2023-04-18T11:05:41.436Z,37.20
2023-04-18T11:06:48.899Z,27.47
2023-04-18T11:07:51.110Z,28.87
2023-04-18T11:09:08.419Z,27.77
2023-04-18T11:10:10.472Z,33.28
2023-04-18T11:11:13.421Z,29.83
2023-04-18T11:12:15.196Z,27.83
2023-04-18T11:13:16.923Z,27.85
2023-04-18T11:14:18.687Z,30.65
2023-04-18T11:15:23.453Z,28.42
2023-04-18T11:16:29.898Z,31.50
2023-04-18T11:17:32.969Z,28.53
2023-04-18T11:18:41.513Z,29.23
2023-04-18T11:19:43.280Z,28.65
2023-04-18T11:20:49.689Z,24.50
2023-04-18T11:21:51.819Z,27.75
2023-04-18T11:22:58.405Z,27.35
2023-04-18T11:24:00.279Z,26.90
2023-04-18T11:25:07.960Z,27.83
2023-04-18T11:26:09.829Z,29.65
2023-04-18T11:27:12.787Z,23.42
2023-04-18T11:28:19.916Z,27.83
2023-04-18T11:29:21.900Z,27.73
2023-04-18T11:30:23.766Z,27.73
2023-04-18T11:31:25.745Z,25.63
2023-04-18T11:32:27.809Z,29.02
2023-04-18T11:33:29.949Z,26.92
2023-04-18T11:34:31.751Z,25.15
2023-04-18T11:35:40.476Z,24.90
2023-04-18T11:36:42.287Z,31.25
2023-04-18T11:37:49.847Z,24.30
2023-04-18T11:38:51.673Z,26.93
2023-04-18T11:39:56.498Z,22.93
2023-04-18T11:40:58.269Z,23.63
2023-04-18T11:42:01.369Z,23.20
2023-04-18T11:43:05.510Z,24.63
2023-04-18T11:44:07.441Z,23.20
2023-04-18T11:45:11.871Z,25.55
2023-04-18T11:46:13.931Z,25.38
2023-04-18T11:47:32.993Z,23.60
2023-04-18T11:48:39.573Z,28.38
2023-04-18T11:49:42.154Z,24.70
2023-04-18T11:50:43.908Z,25.73
2023-04-18T11:51:47.390Z,24.00
2023-04-18T11:52:53.521Z,24.48
2023-04-18T11:53:55.358Z,25.73
2023-04-18T11:55:17.500Z,22.08
2023-04-18T11:56:19.585Z,23.58
2023-04-18T11:57:22.501Z,23.92
2023-04-18T11:58:31.912Z,27.15
2023-04-18T11:59:33.752Z,22.15
2023-04-18T12:00:35.538Z,24.57
2023-04-18T12:01:37.301Z,27.00
2023-04-18T12:02:42.502Z,25.40
2023-04-18T12:03:59.380Z,25.05
2023-04-18T12:05:01.646Z,26.15
2023-04-18T12:06:04.054Z,27.83
2023-04-18T12:07:06.208Z,25.63
2023-04-18T12:08:19.079Z,23.50
2023-04-18T12:09:22.443Z,24.63
2023-04-18T12:10:29.673Z,25.60
2023-04-18T12:11:31.425Z,19.95
2023-04-18T12:12:33.519Z,26.77
2023-04-18T12:13:35.480Z,25.58
2023-04-18T12:14:37.249Z,27.63
2023-04-18T12:15:44.588Z,24.85
2023-04-18T12:16:46.543Z,27.02
2023-04-18T12:17:48.599Z,27.35
2023-04-18T12:18:57.313Z,26.05
2023-04-18T12:20:09.415Z,27.25
2023-04-18T12:21:11.151Z,25.73
2023-04-18T12:22:16.847Z,21.67
2023-04-18T12:23:36.989Z,23.67
2023-04-18T12:24:38.799Z,25.02
2023-04-18T12:25:41.362Z,28.00
2023-04-18T12:26:46.209Z,27.08
2023-04-18T12:27:54.837Z,25.23
2023-04-18T12:28:58.357Z,28.50
2023-04-18T12:30:00.206Z,25.83
2023-04-18T12:31:02.372Z,25.70
2023-04-18T12:32:04.386Z,25.50
2023-04-18T12:33:06.665Z,24.43
2023-04-18T12:34:08.490Z,30.13
2023-04-18T12:35:10.276Z,26.25
2023-04-18T12:36:12.018Z,28.30
2023-04-18T12:37:13.728Z,25.20
2023-04-18T12:38:15.709Z,27.23
2023-04-18T12:39:17.445Z,25.13
2023-04-18T12:40:20.387Z,26.70
2023-04-18T12:41:22.127Z,24.00
2023-04-18T12:42:23.855Z,26.63
2023-04-18T12:43:25.818Z,25.40
2023-04-18T12:44:27.628Z,24.60
2023-04-18T12:45:29.826Z,29.63
2023-04-18T12:46:31.876Z,28.98
2023-04-18T12:47:35.538Z,26.23
2023-04-18T12:48:37.358Z,24.05
2023-04-18T12:49:39.094Z,26.38
2023-04-18T12:50:40.950Z,26.63
2023-04-18T12:51:43.604Z,28.95
2023-04-18T12:52:45.888Z,25.98
2023-04-18T12:53:47.635Z,23.30
2023-04-18T12:54:49.563Z,25.87
2023-04-18T12:55:51.935Z,28.08
2023-04-18T12:56:53.675Z,24.63
2023-04-18T12:57:56.110Z,22.75
2023-04-18T12:58:57.869Z,26.90
2023-04-18T13:00:00.243Z,23.55
2023-04-18T13:01:02.078Z,25.77
2023-04-18T13:02:06.132Z,31.98
2023-04-18T13:03:08.676Z,21.88
2023-04-18T13:04:13.220Z,30.03
2023-04-18T13:05:17.235Z,29.03
2023-04-18T13:06:19.022Z,29.00
2023-04-18T13:07:20.866Z,27.70
2023-04-18T13:08:23.477Z,30.23
2023-04-18T13:09:26.885Z,26.73
2023-04-18T13:10:28.796Z,31.08
2023-04-18T13:11:30.840Z,25.73
2023-04-18T13:12:32.604Z,23.80
2023-04-18T13:13:35.821Z,25.60
2023-04-18T13:14:37.864Z,29.90
2023-04-18T13:15:39.952Z,23.97
2023-04-18T13:16:43.480Z,26.30
2023-04-18T13:17:45.951Z,31.60
2023-04-18T13:18:47.695Z,27.25
2023-04-18T13:19:49.736Z,25.42
2023-04-18T13:20:52.514Z,26.95
2023-04-18T13:21:54.237Z,24.67
2023-04-18T13:22:56.163Z,29.45
2023-04-18T13:23:57.955Z,26.48
2023-04-18T13:24:59.964Z,26.67
2023-04-18T13:26:01.684Z,23.73
2023-04-18T13:27:10.160Z,22.73
2023-04-18T13:28:11.882Z,24.02
2023-04-18T13:29:13.880Z,24.35
2023-04-18T13:30:15.873Z,27.55
2023-04-18T13:31:17.743Z,24.83
2023-04-18T13:32:19.614Z,22.55
2023-04-18T13:33:21.441Z,25.63
2023-04-18T13:34:23.268Z,24.17
2023-04-18T13:35:25.211Z,20.33